createdAt,value
2022-10-13T00:03:37.141Z,9.18
2022-10-13T00:05:41.273Z,9.07
2022-10-13T00:07:44.394Z,12.68
2022-10-13T00:09:45.865Z,11.10
2022-10-13T00:13:49.979Z,8.98
2022-10-13T00:15:51.551Z,9.23
2022-10-13T00:17:53.032Z,9.50
2022-10-13T00:21:57.144Z,7.85
2022-10-13T00:26:03.367Z,10.05
2022-10-13T00:28:04.799Z,12.60
2022-10-13T00:32:08.161Z,9.82
2022-10-13T00:36:12.773Z,12.20
2022-10-13T00:38:15.042Z,10.45
2022-10-13T00:40:16.540Z,10.38
2022-10-13T00:45:08.815Z,10.05
2022-10-13T00:47:10.459Z,9.20
2022-10-13T00:49:13.982Z,9.05
2022-10-13T00:51:20.287Z,10.02
2022-10-13T00:53:24.130Z,14.10
2022-10-13T00:55:29.395Z,10.77
2022-10-13T00:57:31.358Z,11.32
2022-10-13T00:59:32.862Z,11.32
2022-10-13T01:03:37.131Z,11.23
2022-10-13T01:05:40.389Z,9.63
2022-10-13T01:07:43.968Z,12.38
2022-10-13T01:09:45.479Z,12.38
2022-10-13T01:14:01.962Z,9.00
2022-10-13T01:16:13.160Z,11.48
2022-10-13T01:18:22.226Z,9.70
2022-10-13T01:21:01.694Z,10.27
2022-10-13T01:23:22.160Z,12.52
2022-10-13T01:25:42.997Z,11.48
2022-10-13T01:28:00.117Z,8.88
2022-10-13T01:30:13.070Z,8.20
2022-10-13T01:32:21.127Z,10.07
2022-10-13T01:34:31.710Z,13.60
2022-10-13T01:36:37.951Z,10.90
2022-10-13T01:38:46.361Z,10.65
2022-10-13T01:40:51.996Z,8.02
2022-10-13T01:42:58.435Z,9.93
2022-10-13T01:45:02.252Z,9.20
2022-10-13T01:47:07.760Z,9.35
2022-10-13T01:49:12.404Z,11.32
2022-10-13T01:51:18.187Z,10.45
2022-10-13T01:53:20.893Z,7.55
2022-10-13T01:55:22.568Z,11.38
2022-10-13T01:57:30.596Z,11.27
2022-10-13T01:59:34.142Z,9.98
2022-10-13T02:01:51.334Z,11.65
2022-10-13T02:04:03.380Z,11.82
2022-10-13T02:06:16.291Z,10.85
2022-10-13T02:08:25.127Z,9.32
2022-10-13T02:10:31.389Z,10.13
2022-10-13T02:12:38.149Z,8.82
2022-10-13T02:14:42.380Z,10.32
2022-10-13T02:16:46.000Z,18.00
2022-10-13T02:18:47.933Z,12.50
2022-10-13T02:20:51.022Z,10.82
2022-10-13T02:22:58.593Z,12.48
2022-10-13T02:25:00.120Z,10.95
2022-10-13T02:29:09.156Z,7.85
2022-10-13T02:31:10.695Z,10.70
2022-10-13T02:35:13.993Z,10.30
2022-10-13T02:37:17.138Z,10.52
2022-10-13T02:39:18.590Z,10.05
2022-10-13T02:41:20.035Z,12.60
2022-10-13T02:43:21.539Z,19.90
2022-10-13T02:47:24.576Z,24.25
2022-10-13T02:51:27.428Z,19.45
2022-10-13T02:55:32.737Z,14.07
2022-10-13T02:57:34.390Z,12.77
2022-10-13T02:59:35.848Z,13.90
2022-10-13T03:01:37.398Z,14.13
2022-10-13T03:05:40.348Z,21.23
2022-10-13T03:07:42.124Z,9.90
2022-10-13T03:09:43.575Z,11.35
2022-10-13T03:11:46.375Z,14.10
2022-10-13T03:13:47.849Z,14.10
2022-10-13T03:17:51.036Z,15.43
2022-10-13T03:19:52.564Z,12.40
2022-10-13T03:23:55.373Z,11.60
2022-10-13T03:27:59.697Z,11.32
2022-10-13T03:30:01.181Z,13.82
2022-10-13T03:34:03.956Z,10.07
2022-10-13T03:36:06.378Z,14.05
2022-10-13T03:38:08.239Z,14.00
2022-10-13T03:40:10.916Z,13.80
2022-10-13T03:42:12.350Z,12.63
2022-10-13T03:44:15.221Z,8.98
2022-10-13T03:46:17.824Z,10.52
2022-10-13T03:48:19.375Z,14.55
2022-10-13T03:52:22.960Z,9.27
2022-10-13T03:54:24.425Z,10.20
2022-10-13T03:58:28.490Z,16.17
2022-10-13T04:00:31.272Z,10.25
2022-10-13T04:02:32.740Z,11.52
2022-10-13T04:06:35.573Z,10.80
2022-10-13T04:10:38.977Z,8.63
2022-10-13T04:12:40.428Z,9.13
2022-10-13T04:16:44.530Z,24.10
2022-10-13T04:18:50.091Z,12.88
2022-10-13T04:20:51.568Z,11.80
2022-10-13T04:24:54.346Z,13.50
2022-10-13T04:28:57.136Z,12.75
2022-10-13T04:33:01.500Z,16.50
2022-10-13T04:35:03.503Z,17.23
2022-10-13T04:37:04.985Z,13.77
2022-10-13T04:41:08.761Z,13.85
2022-10-13T04:43:10.323Z,12.88
2022-10-13T04:47:13.184Z,12.85
2022-10-13T04:51:19.314Z,10.65
2022-10-13T04:53:20.749Z,10.25
2022-10-13T04:55:22.203Z,10.55
2022-10-13T04:57:23.659Z,13.02
2022-10-13T04:59:25.290Z,14.80
2022-10-13T05:01:27.015Z,15.18
2022-10-13T05:03:29.057Z,13.15
2022-10-13T05:05:34.874Z,17.02
2022-10-13T05:07:36.325Z,15.07
2022-10-13T05:09:38.036Z,15.68
2022-10-13T05:11:39.502Z,14.88
2022-10-13T05:15:42.298Z,12.73
2022-10-13T05:19:45.052Z,15.95
2022-10-13T05:21:47.939Z,10.75
2022-10-13T05:23:49.806Z,15.63
2022-10-13T05:25:51.248Z,17.55
2022-10-13T05:27:53.009Z,16.13
2022-10-13T05:29:54.475Z,16.17
2022-10-13T05:31:55.987Z,14.98
2022-10-13T05:36:03.779Z,16.05
2022-10-13T05:38:06.608Z,11.98
2022-10-13T05:40:09.205Z,16.67
2022-10-13T05:42:10.815Z,15.43
2022-10-13T05:44:12.380Z,17.90
2022-10-13T05:48:15.531Z,13.45
2022-10-13T05:52:18.983Z,18.15
2022-10-13T05:54:25.328Z,16.88
2022-10-13T05:56:33.149Z,15.15
2022-10-13T05:58:39.222Z,22.50
2022-10-13T06:00:42.999Z,16.17
2022-10-13T06:02:49.672Z,17.45
2022-10-13T06:04:54.962Z,15.45
2022-10-13T06:06:56.567Z,20.13
2022-10-13T06:08:58.445Z,14.02
2022-10-13T06:11:02.787Z,18.02
2022-10-13T06:13:04.205Z,12.70
2022-10-13T06:15:06.754Z,12.80
2022-10-13T06:17:08.475Z,13.10
2022-10-13T06:19:09.923Z,14.18
2022-10-13T06:21:11.387Z,11.50
2022-10-13T06:23:12.839Z,13.10
2022-10-13T06:25:14.513Z,13.27
2022-10-13T06:27:17.312Z,12.57
2022-10-13T06:29:18.809Z,11.77
2022-10-13T06:31:21.501Z,11.70
2022-10-13T06:35:24.500Z,17.60
2022-10-13T06:37:27.508Z,12.93
2022-10-13T06:39:29.150Z,16.23
2022-10-13T06:41:30.672Z,12.48
2022-10-13T06:45:42.004Z,11.50
2022-10-13T06:49:44.765Z,10.98
2022-10-13T06:53:47.578Z,17.77
2022-10-13T06:55:52.302Z,14.45
2022-10-13T06:57:53.979Z,15.63
2022-10-13T06:59:56.804Z,13.93
2022-10-13T07:01:58.255Z,11.85
2022-10-13T07:06:01.254Z,13.77
2022-10-13T07:08:02.722Z,13.00
2022-10-13T07:12:06.247Z,13.68
2022-10-13T07:14:07.690Z,14.68
2022-10-13T07:16:11.023Z,17.27
2022-10-13T07:18:12.487Z,15.85
2022-10-13T07:22:15.376Z,15.68
2022-10-13T07:26:18.209Z,18.33
2022-10-13T07:30:21.786Z,13.63
2022-10-13T07:32:24.672Z,16.30
2022-10-13T07:34:26.162Z,19.77
2022-10-13T07:38:30.137Z,19.75
2022-10-13T07:40:31.698Z,13.02
2022-10-13T07:44:34.961Z,16.95
2022-10-13T07:48:39.357Z,16.90
2022-10-13T07:50:40.772Z,15.32
2022-10-13T07:54:44.182Z,19.58
2022-10-13T07:56:45.855Z,20.75
2022-10-13T07:58:48.025Z,15.90
2022-10-13T08:00:56.051Z,16.15
2022-10-13T08:02:57.521Z,15.02
2022-10-13T08:07:02.110Z,17.42
2022-10-13T08:09:04.320Z,14.65
2022-10-13T08:11:07.532Z,14.00
2022-10-13T08:13:10.432Z,15.13
2022-10-13T08:15:12.064Z,18.33
2022-10-13T08:17:19.988Z,16.55
2022-10-13T08:19:21.611Z,17.10
2022-10-13T08:21:57.699Z,17.15
2022-10-13T08:23:46.744Z,19.08
2022-10-13T08:25:48.277Z,16.80
2022-10-13T08:27:51.358Z,20.90
2022-10-13T08:29:53.975Z,15.98
2022-10-13T08:31:55.603Z,19.30
2022-10-13T08:33:57.097Z,16.98
2022-10-13T08:35:58.699Z,20.75
2022-10-13T08:38:01.548Z,15.80
2022-10-13T08:40:03.404Z,16.30
2022-10-13T08:42:14.725Z,16.17
2022-10-13T08:45:05.887Z,20.45
2022-10-13T08:46:50.705Z,19.77
2022-10-13T08:48:52.686Z,20.50
2022-10-13T08:50:59.442Z,19.83
2022-10-13T08:53:07.307Z,20.63
2022-10-13T08:55:13.518Z,18.40
2022-10-13T08:57:15.159Z,20.42
2022-10-13T08:59:18.041Z,19.70
2022-10-13T09:01:23.054Z,20.02
2022-10-13T09:03:26.826Z,18.67
2022-10-13T09:05:41.154Z,20.38
2022-10-13T09:07:46.181Z,17.13
2022-10-13T09:09:51.511Z,21.70
2022-10-13T09:11:52.988Z,18.75
2022-10-13T09:13:55.954Z,20.35
2022-10-13T09:15:58.267Z,16.73
2022-10-13T09:18:10.050Z,15.35
2022-10-13T09:20:19.684Z,18.58
2022-10-13T09:22:24.107Z,16.55
2022-10-13T09:24:27.176Z,15.93
2022-10-13T09:26:30.057Z,16.77
2022-10-13T09:28:32.987Z,18.92
2022-10-13T09:30:36.421Z,17.42
2022-10-13T09:32:37.911Z,17.02
2022-10-13T09:34:39.528Z,17.05
2022-10-13T09:36:55.855Z,19.05
2022-10-13T09:39:12.653Z,16.60
2022-10-13T09:41:19.438Z,16.67
2022-10-13T09:43:28.951Z,18.38
2022-10-13T09:45:30.667Z,20.73
2022-10-13T09:47:32.242Z,18.65
2022-10-13T09:49:37.090Z,18.25
2022-10-13T09:51:41.453Z,19.23
2022-10-13T09:53:47.274Z,19.17
2022-10-13T09:55:48.799Z,17.92
2022-10-13T09:57:53.375Z,21.20
2022-10-13T10:00:04.253Z,18.83
2022-10-13T10:02:21.239Z,16.20
2022-10-13T10:04:31.858Z,20.52
2022-10-13T10:06:34.630Z,20.52
2022-10-13T10:09:01.698Z,20.45
2022-10-13T10:11:05.729Z,17.58
2022-10-13T10:13:10.795Z,18.85
2022-10-13T10:15:23.684Z,18.83
2022-10-13T10:17:32.154Z,16.25
2022-10-13T10:19:47.691Z,19.52
2022-10-13T10:21:53.709Z,15.65
2022-10-13T10:23:59.804Z,27.00
2022-10-13T10:26:05.387Z,18.38
2022-10-13T10:28:27.454Z,17.95
2022-10-13T10:30:35.220Z,19.85
2022-10-13T10:32:43.344Z,16.75
2022-10-13T10:34:50.517Z,20.08
2022-10-13T10:37:04.279Z,16.58
2022-10-13T10:39:19.028Z,19.92
2022-10-13T10:41:35.512Z,19.13
2022-10-13T10:43:44.810Z,17.48
2022-10-13T10:45:48.029Z,18.88
2022-10-13T10:47:54.229Z,18.50
2022-10-13T10:50:01.952Z,18.13
2022-10-13T10:52:08.218Z,18.67
2022-10-13T10:54:23.028Z,17.58
2022-10-13T10:56:31.662Z,17.08
2022-10-13T10:58:41.311Z,15.35
2022-10-13T11:00:53.829Z,16.42
2022-10-13T11:03:02.429Z,17.08
2022-10-13T11:05:06.318Z,21.23
2022-10-13T11:07:12.042Z,17.60
2022-10-13T11:09:13.572Z,20.90
2022-10-13T11:11:37.871Z,14.23
2022-10-13T11:13:51.641Z,16.58
2022-10-13T11:15:54.561Z,17.88
2022-10-13T11:17:56.119Z,18.20
2022-10-13T11:19:58.469Z,16.85
2022-10-13T11:22:22.928Z,17.40
2022-10-13T11:24:49.644Z,22.15
2022-10-13T11:26:51.181Z,16.90
2022-10-13T11:28:52.828Z,17.63
2022-10-13T11:30:57.303Z,18.73
2022-10-13T11:32:58.862Z,20.10
2022-10-13T11:35:13.970Z,18.05
2022-10-13T11:37:16.975Z,18.20
2022-10-13T11:39:58.604Z,19.00
2022-10-13T11:42:10.222Z,15.50
2022-10-13T11:44:21.643Z,16.48
2022-10-13T11:46:26.986Z,17.92
2022-10-13T11:48:47.991Z,14.40
2022-10-13T11:50:58.759Z,20.33
2022-10-13T11:53:10.368Z,16.13
2022-10-13T11:55:17.412Z,17.48
2022-10-13T11:57:21.092Z,13.95
2022-10-13T11:59:25.968Z,14.55
2022-10-13T12:01:28.783Z,15.48
2022-10-13T12:03:32.174Z,14.00
2022-10-13T12:05:33.640Z,17.73
2022-10-13T12:07:39.357Z,12.48
2022-10-13T12:09:49.736Z,12.95
2022-10-13T12:11:57.422Z,14.23
2022-10-13T12:14:00.689Z,13.43
2022-10-13T12:16:04.180Z,12.50
2022-10-13T12:18:21.616Z,13.52
2022-10-13T12:20:25.627Z,14.07
2022-10-13T12:22:28.183Z,14.23
2022-10-13T12:24:30.444Z,13.43
2022-10-13T12:26:32.000Z,14.45
2022-10-13T12:28:48.519Z,12.18
2022-10-13T12:30:52.456Z,17.58
2022-10-13T12:32:55.718Z,13.95
2022-10-13T12:35:10.958Z,18.77
2022-10-13T12:37:18.471Z,11.93
2022-10-13T12:39:20.553Z,13.35
2022-10-13T12:41:26.139Z,15.90
2022-10-13T12:43:27.649Z,17.15
2022-10-13T12:45:32.860Z,13.00
2022-10-13T12:47:48.090Z,14.93
2022-10-13T12:49:49.595Z,14.98
2022-10-13T12:51:56.147Z,17.25
2022-10-13T12:53:57.750Z,19.25
2022-10-13T12:56:01.786Z,18.17
2022-10-13T12:58:03.421Z,15.25
2022-10-13T13:00:05.780Z,16.45
2022-10-13T13:02:21.206Z,18.65
2022-10-13T13:04:31.303Z,16.55
2022-10-13T13:06:35.990Z,17.55
2022-10-13T13:08:39.651Z,17.67
2022-10-13T13:10:53.929Z,18.02
2022-10-13T13:12:55.714Z,16.48
2022-10-13T13:14:57.246Z,17.17
2022-10-13T13:17:03.177Z,19.80
2022-10-13T13:19:04.670Z,19.38
2022-10-13T13:21:06.904Z,18.65
2022-10-13T13:23:08.384Z,16.92
2022-10-13T13:25:11.224Z,20.25
2022-10-13T13:27:23.093Z,20.45
2022-10-13T13:29:26.223Z,25.40
2022-10-13T13:31:27.833Z,20.48
2022-10-13T13:33:29.311Z,17.30
2022-10-13T13:35:30.997Z,15.88
2022-10-13T13:37:37.457Z,20.15
2022-10-13T13:39:38.971Z,21.98
2022-10-13T13:41:42.028Z,17.88
2022-10-13T13:43:43.576Z,18.95
2022-10-13T13:45:45.104Z,18.38
2022-10-13T13:47:46.973Z,17.27
2022-10-13T13:49:50.018Z,13.38
2022-10-13T13:51:51.472Z,19.42
2022-10-13T13:53:52.914Z,16.85
2022-10-13T13:55:54.425Z,18.58
2022-10-13T13:57:57.952Z,17.30
2022-10-13T13:59:59.451Z,19.50
2022-10-13T14:02:01.483Z,18.00
2022-10-13T14:04:02.939Z,16.55
2022-10-13T14:06:05.487Z,18.27
2022-10-13T14:08:07.522Z,16.25
2022-10-13T14:10:10.374Z,18.13
2022-10-13T14:12:12.200Z,16.17
2022-10-13T14:14:15.425Z,17.95
2022-10-13T14:16:17.703Z,16.60
2022-10-13T14:18:19.355Z,16.48
2022-10-13T14:20:21.969Z,16.40
2022-10-13T14:22:23.659Z,15.93
2022-10-13T14:24:25.325Z,22.92
2022-10-13T14:26:26.954Z,18.63
2022-10-13T14:28:28.460Z,16.20
2022-10-13T14:30:31.353Z,17.77
2022-10-13T14:32:33.245Z,17.85
2022-10-13T14:34:34.717Z,17.45
2022-10-13T14:36:36.216Z,16.08
2022-10-13T14:38:37.711Z,16.90
2022-10-13T14:40:40.809Z,13.35
2022-10-13T14:42:42.246Z,14.20
2022-10-13T14:44:43.805Z,15.02
2022-10-13T14:46:46.619Z,15.45
2022-10-13T14:48:48.592Z,17.98
2022-10-13T14:50:50.089Z,21.77
2022-10-13T14:52:51.575Z,16.17
2022-10-13T14:54:53.150Z,17.08
2022-10-13T14:56:54.658Z,13.93
2022-10-13T14:58:57.588Z,15.07
2022-10-13T15:00:59.066Z,16.63
2022-10-13T15:03:01.989Z,14.48
2022-10-13T15:05:04.047Z,19.38
2022-10-13T15:07:05.639Z,15.07
2022-10-13T15:11:09.772Z,16.58
2022-10-13T15:13:11.544Z,20.58
2022-10-13T15:15:13.260Z,13.30
2022-10-13T15:17:14.849Z,13.65
2022-10-13T15:19:18.774Z,14.98
2022-10-13T15:21:20.854Z,11.50
2022-10-13T15:23:22.310Z,18.83
2022-10-13T15:25:23.794Z,15.98
2022-10-13T15:27:25.345Z,16.40
2022-10-13T15:29:26.848Z,16.20
2022-10-13T15:31:28.735Z,15.93
2022-10-13T15:33:30.385Z,14.10
2022-10-13T15:35:33.266Z,17.98
2022-10-13T15:37:34.727Z,15.07
2022-10-13T15:39:36.597Z,13.55
2022-10-13T15:41:38.043Z,17.42
2022-10-13T15:43:39.499Z,16.48
2022-10-13T15:45:41.387Z,17.55
2022-10-13T15:47:42.827Z,16.88
2022-10-13T15:49:44.313Z,27.25
2022-10-13T15:51:47.468Z,18.13
2022-10-13T15:53:48.937Z,17.88
2022-10-13T15:55:50.592Z,18.65
2022-10-13T15:57:52.188Z,17.92
2022-10-13T15:59:53.726Z,16.98
2022-10-13T16:01:55.287Z,16.88
2022-10-13T16:03:57.102Z,19.70
2022-10-13T16:06:02.246Z,16.58
2022-10-13T16:08:05.201Z,17.20
2022-10-13T16:10:07.641Z,16.63
2022-10-13T16:12:09.098Z,17.17
2022-10-13T16:14:10.645Z,18.38
2022-10-13T16:16:12.286Z,19.90
2022-10-13T16:18:13.727Z,38.05
2022-10-13T16:20:15.175Z,19.52
2022-10-13T16:22:16.720Z,17.20
2022-10-13T16:24:19.593Z,22.70
2022-10-13T16:26:21.263Z,20.45
2022-10-13T16:28:22.830Z,19.77
2022-10-13T16:30:24.590Z,23.10
2022-10-13T16:32:26.167Z,22.83
2022-10-13T16:34:27.927Z,20.08
2022-10-13T16:36:29.413Z,25.40
2022-10-13T16:38:31.053Z,21.08
2022-10-13T16:40:33.895Z,23.15
2022-10-13T16:42:35.377Z,28.25
2022-10-13T16:44:36.979Z,22.70
2022-10-13T16:46:38.802Z,20.55
2022-10-13T16:48:41.522Z,20.42
2022-10-13T16:50:42.987Z,22.35
2022-10-13T16:52:44.717Z,17.48
2022-10-13T16:54:46.476Z,20.95
2022-10-13T16:56:49.307Z,17.88
2022-10-13T16:58:55.848Z,17.48
2022-10-13T17:01:02.944Z,19.67
2022-10-13T17:03:05.009Z,20.40
2022-10-13T17:05:06.843Z,15.38
2022-10-13T17:07:08.341Z,18.83
2022-10-13T17:09:10.669Z,22.38
2022-10-13T17:11:16.854Z,18.13
2022-10-13T17:13:19.658Z,16.88
2022-10-13T17:15:21.125Z,22.42
2022-10-13T17:17:23.022Z,27.30
2022-10-13T17:19:24.760Z,19.73
2022-10-13T17:21:26.482Z,29.02
2022-10-13T17:23:29.580Z,49.42
2022-10-13T17:25:33.846Z,36.25
2022-10-13T17:27:35.701Z,61.70
2022-10-13T17:29:38.575Z,35.92
2022-10-13T17:31:40.099Z,27.25
2022-10-13T17:33:42.749Z,19.92
2022-10-13T17:35:44.397Z,19.38
2022-10-13T17:37:49.146Z,15.88
2022-10-13T17:39:50.815Z,18.88
2022-10-13T17:41:52.436Z,18.45
2022-10-13T17:43:53.913Z,17.05
2022-10-13T17:46:31.105Z,18.10
2022-10-13T17:48:28.635Z,22.92
2022-10-13T17:50:30.097Z,25.85
2022-10-13T17:52:31.553Z,24.70
2022-10-13T17:54:33.037Z,26.00
2022-10-13T17:56:34.499Z,27.27
2022-10-13T17:58:36.810Z,27.05
2022-10-13T18:01:00.633Z,20.55
2022-10-13T18:03:01.143Z,23.40
2022-10-13T18:05:02.979Z,22.48
2022-10-13T18:07:04.474Z,22.00
2022-10-13T18:09:07.456Z,26.02
2022-10-13T18:11:11.127Z,24.00
2022-10-13T18:13:12.695Z,23.73
2022-10-13T18:15:14.417Z,21.65
2022-10-13T18:17:15.945Z,29.23
2022-10-13T18:19:19.188Z,24.80
2022-10-13T18:21:22.620Z,24.63
2022-10-13T18:23:24.048Z,25.73
2022-10-13T18:25:25.503Z,23.27
2022-10-13T18:27:26.974Z,24.60
2022-10-13T18:29:28.656Z,23.85
2022-10-13T18:31:32.080Z,22.95
2022-10-13T18:33:33.627Z,23.67
2022-10-13T18:35:36.461Z,24.20
2022-10-13T18:37:38.215Z,21.17
2022-10-13T18:39:39.681Z,22.83
2022-10-13T18:41:41.875Z,24.50
2022-10-13T18:43:43.426Z,24.67
2022-10-13T18:45:44.883Z,24.13
2022-10-13T18:47:50.434Z,21.35
2022-10-13T18:49:51.926Z,23.38
2022-10-13T18:51:54.732Z,25.23
2022-10-13T18:53:56.793Z,24.48
2022-10-13T18:56:03.261Z,28.60
2022-10-13T18:58:04.754Z,32.22
2022-10-13T19:00:07.353Z,31.05
2022-10-13T19:02:09.421Z,30.33
2022-10-13T19:04:11.299Z,25.40
2022-10-13T19:06:14.490Z,74.57
2022-10-13T19:08:17.375Z,41.25
2022-10-13T19:10:18.994Z,46.30
2022-10-13T19:12:20.545Z,44.20
2022-10-13T19:14:22.040Z,33.47
2022-10-13T19:16:24.977Z,27.73
2022-10-13T19:18:26.657Z,29.58
2022-10-13T19:20:28.209Z,30.58
2022-10-13T19:22:29.665Z,26.30
2022-10-13T19:24:32.556Z,27.13
2022-10-13T19:26:35.688Z,24.75
2022-10-13T19:28:37.400Z,26.00
2022-10-13T19:30:39.386Z,29.63
2022-10-13T19:32:41.106Z,29.25
2022-10-13T19:34:42.591Z,29.10
2022-10-13T19:36:45.641Z,28.88
2022-10-13T19:38:47.190Z,29.42
2022-10-13T19:40:50.182Z,31.83
2022-10-13T19:42:51.576Z,27.10
2022-10-13T19:46:54.612Z,32.20
2022-10-13T19:48:56.054Z,31.33
2022-10-13T19:51:00.269Z,30.10
2022-10-13T19:53:01.766Z,30.60
2022-10-13T19:55:03.881Z,30.05
2022-10-13T19:57:06.806Z,29.92
2022-10-13T19:59:08.323Z,29.52
2022-10-13T20:01:09.885Z,29.05
2022-10-13T20:03:12.357Z,31.33
2022-10-13T20:05:13.826Z,28.10
2022-10-13T20:09:17.463Z,31.77
2022-10-13T20:11:23.790Z,31.92
2022-10-13T20:13:27.193Z,40.38
2022-10-13T20:15:28.619Z,34.10
2022-10-13T20:19:31.482Z,30.13
2022-10-13T20:21:32.989Z,32.28
2022-10-13T20:23:35.051Z,31.48
2022-10-13T20:25:36.993Z,32.17
2022-10-13T20:27:38.442Z,32.63
2022-10-13T20:31:44.916Z,31.92
2022-10-13T20:33:47.184Z,29.25
2022-10-13T20:35:48.791Z,29.65
2022-10-13T20:37:50.513Z,32.03
2022-10-13T20:39:53.926Z,30.45
2022-10-13T20:41:55.385Z,31.58
2022-10-13T20:43:59.493Z,28.70
2022-10-13T20:46:04.970Z,28.42
2022-10-13T20:48:06.479Z,29.02
2022-10-13T20:50:08.502Z,31.92
2022-10-13T20:52:10.214Z,31.67
2022-10-13T20:54:13.689Z,28.98
2022-10-13T20:56:17.932Z,33.80
2022-10-13T20:58:19.422Z,31.98
2022-10-13T21:00:21.067Z,31.02
2022-10-13T21:02:23.859Z,31.25
2022-10-13T21:04:25.353Z,29.25
2022-10-13T21:06:26.940Z,29.30
2022-10-13T21:08:29.034Z,29.83
2022-10-13T21:10:30.807Z,30.75
2022-10-13T21:12:32.340Z,42.85
2022-10-13T21:14:33.839Z,34.35
2022-10-13T21:16:36.272Z,33.33
2022-10-13T21:18:39.287Z,29.85
2022-10-13T21:20:40.760Z,46.00
2022-10-13T21:22:43.979Z,34.75
2022-10-13T21:24:45.422Z,30.38
2022-10-13T21:28:48.538Z,42.75
2022-10-13T21:30:59.380Z,98.05
2022-10-13T21:33:00.927Z,37.60
2022-10-13T21:35:04.315Z,28.83
2022-10-13T21:37:05.771Z,29.15
2022-10-13T21:41:10.395Z,27.92
2022-10-13T21:43:11.868Z,35.45
2022-10-13T21:47:14.919Z,34.25
2022-10-13T21:49:16.411Z,34.53
2022-10-13T21:51:20.801Z,36.17
2022-10-13T21:53:22.309Z,36.03
2022-10-13T21:55:24.043Z,29.90
2022-10-13T21:57:25.600Z,29.60
2022-10-13T21:59:27.241Z,30.15
2022-10-13T22:01:29.020Z,31.88
2022-10-13T22:03:30.870Z,38.92
2022-10-13T22:05:32.379Z,32.97
2022-10-13T22:07:35.197Z,31.10
2022-10-13T22:09:36.869Z,30.83
2022-10-13T22:11:39.205Z,29.55
2022-10-13T22:13:41.076Z,28.58
2022-10-13T22:15:42.585Z,30.30
2022-10-13T22:17:44.097Z,29.90
2022-10-13T22:19:45.597Z,30.30
2022-10-13T22:21:48.957Z,31.58
2022-10-13T22:23:51.915Z,33.63
2022-10-13T22:25:53.384Z,31.63
2022-10-13T22:29:56.155Z,27.52
2022-10-13T22:33:59.905Z,33.45
2022-10-13T22:36:06.354Z,27.05
2022-10-13T22:38:07.857Z,30.52
2022-10-13T22:40:11.746Z,25.80
2022-10-13T22:42:13.327Z,28.25
2022-10-13T22:44:16.814Z,24.48
2022-10-13T22:46:20.198Z,29.48
2022-10-13T22:48:21.807Z,26.90
2022-10-13T22:50:23.245Z,25.98
2022-10-13T22:54:26.318Z,26.80
2022-10-13T22:56:31.222Z,27.17
2022-10-13T22:58:32.713Z,28.88
2022-10-13T23:00:34.597Z,28.23
2022-10-13T23:02:36.289Z,30.48
2022-10-13T23:04:38.095Z,25.83
2022-10-13T23:06:39.673Z,26.20
2022-10-13T23:08:43.644Z,23.60
2022-10-13T23:10:45.049Z,26.88
2022-10-13T23:14:49.125Z,23.70
2022-10-13T23:18:52.455Z,30.02
2022-10-13T23:20:56.892Z,25.42
2022-10-13T23:22:58.587Z,26.58
2022-10-13T23:27:01.440Z,25.52
2022-10-13T23:29:04.951Z,25.80
2022-10-13T23:31:10.216Z,23.20
2022-10-13T23:33:11.708Z,26.88
2022-10-13T23:35:13.382Z,26.33
2022-10-13T23:37:14.861Z,23.92
2022-10-13T23:41:17.606Z,24.75
2022-10-13T23:45:22.031Z,29.38
2022-10-13T23:47:23.822Z,24.50
2022-10-13T23:49:25.574Z,26.27
2022-10-13T23:51:27.145Z,34.08
2022-10-13T23:55:30.174Z,26.17
2022-10-13T23:57:31.661Z,22.90
